Time;durP1;ratioP1;P1;durP2;ratioP2;P2;SDS_P1;SDS_P2;PMS_P1;PMS_P2;Temp;Humidity;BMP_temperature;BMP_pressure;BME280_temperature;BME280_humidity;BME280_pressure;Samples;Min_cycle;Max_cycle;Signal;HPM_P1;HPM_P2
2023/03/10 00:02:23;;;;;;;6.53;4.32;;;9.70;63.80;;;;;;4993285;28;20062;-87
2023/03/10 00:04:52;;;;;;;3.95;3.65;;;9.70;63.90;;;;;;4993981;28;20030;-86
2023/03/10 00:07:18;;;;;;;3.90;3.60;;;9.70;63.90;;;;;;4981940;28;20043;-85
2023/03/10 00:09:45;;;;;;;4.55;4.18;;;9.70;63.90;;;;;;4973351;28;20034;-83
2023/03/10 00:12:13;;;;;;;4.57;4.18;;;9.70;64.00;;;;;;4986728;28;20110;-84
2023/03/10 00:14:39;;;;;;;4.03;3.72;;;9.60;63.80;;;;;;4989253;28;20038;-85
2023/03/10 00:17:06;;;;;;;4.38;3.88;;;9.60;63.90;;;;;;4989834;28;20042;-84
2023/03/10 00:19:35;;;;;;;4.13;3.78;;;9.60;63.90;;;;;;4989278;28;20045;-85
2023/03/10 00:22:03;;;;;;;4.10;3.80;;;9.60;63.90;;;;;;4994933;28;20030;-84
2023/03/10 00:24:30;;;;;;;3.83;3.53;;;9.50;63.70;;;;;;4988563;28;20042;-83
2023/03/10 00:26:56;;;;;;;4.10;3.70;;;9.50;63.70;;;;;;4990472;28;20034;-84
2023/03/10 00:29:22;;;;;;;4.50;4.15;;;9.40;63.60;;;;;;4988807;28;20041;-86
2023/03/10 00:31:48;;;;;;;4.63;4.22;;;9.40;63.60;;;;;;4998714;28;20038;-88
2023/03/10 00:34:14;;;;;;;4.25;3.72;;;9.40;63.70;;;;;;4987527;28;20038;-86
2023/03/10 00:36:40;;;;;;;4.13;3.83;;;9.40;63.70;;;;;;4988737;28;20041;-87
2023/03/10 00:39:09;;;;;;;4.07;3.78;;;9.40;63.80;;;;;;4989048;28;20049;-87
2023/03/10 00:41:37;;;;;;;3.70;3.40;;;9.30;63.60;;;;;;4989722;28;20026;-87
2023/03/10 00:44:05;;;;;;;4.40;4.03;;;9.30;63.60;;;;;;4984146;28;20184;-85
2023/03/10 00:46:35;;;;;;;4.53;4.13;;;9.30;63.70;;;;;;4983889;28;20031;-87
2023/03/10 00:49:02;;;;;;;4.22;3.83;;;9.20;63.50;;;;;;4987273;28;20057;-87
2023/03/10 00:51:28;;;;;;;4.15;3.85;;;9.20;63.50;;;;;;4989474;28;20037;-87
2023/03/10 00:53:54;;;;;;;4.68;4.28;;;9.20;63.60;;;;;;4989335;28;20038;-86
2023/03/10 00:56:23;;;;;;;4.30;3.90;;;9.20;63.60;;;;;;4989825;28;20405;-88
2023/03/10 00:58:58;;;;;;;4.20;3.90;;;9.10;63.50;;;;;;4987956;28;20034;-87
2023/03/10 01:01:34;;;;;;;4.13;3.83;;;9.10;63.50;;;;;;4974440;28;20145;-88
2023/03/10 01:04:04;;;;;;;4.35;4.03;;;9.10;63.50;;;;;;4979132;28;20034;-87
2023/03/10 01:06:30;;;;;;;4.30;4.00;;;9.00;63.30;;;;;;4988989;28;20048;-88
2023/03/10 01:08:56;;;;;;;4.10;3.80;;;9.00;63.30;;;;;;4996771;28;20515;-88
2023/03/10 01:11:25;;;;;;;4.10;3.80;;;9.00;63.30;;;;;;4990826;28;20110;-87
2023/03/10 01:13:52;;;;;;;3.92;3.63;;;9.00;63.40;;;;;;4988327;28;20274;-88
2023/03/10 01:16:18;;;;;;;4.60;4.20;;;8.90;63.20;;;;;;4987386;28;20034;-86
2023/03/10 01:18:44;;;;;;;4.72;4.35;;;8.90;63.20;;;;;;4995220;28;20044;-88
2023/03/10 01:21:19;;;;;;;4.25;3.95;;;8.90;63.30;;;;;;4990426;28;20086;-87
2023/03/10 01:23:46;;;;;;;4.32;4.00;;;8.90;63.30;;;;;;4990950;28;20030;-87
2023/03/10 01:26:12;;;;;;;4.88;4.47;;;8.90;63.30;;;;;;4988465;28;20086;-87
2023/03/10 01:28:38;;;;;;;4.80;4.40;;;8.80;63.10;;;;;;4987820;28;20099;-88
2023/03/10 01:31:06;;;;;;;4.40;4.10;;;8.80;63.10;;;;;;4992275;28;20034;-88
2023/03/10 01:33:38;;;;;;;4.35;4.03;;;8.80;63.20;;;;;;4969652;28;20031;-89
2023/03/10 01:36:09;;;;;;;4.00;3.70;;;8.80;63.20;;;;;;4990833;28;20061;-89
2023/03/10 01:38:37;;;;;;;4.40;4.00;;;8.70;63.00;;;;;;4987270;28;20049;-89
2023/03/10 01:41:04;;;;;;;4.57;4.28;;;8.70;63.10;;;;;;4988625;28;20090;-89
2023/03/10 01:43:35;;;;;;;4.03;3.72;;;8.70;63.10;;;;;;4988766;28;20133;-91
2023/03/10 01:46:01;;;;;;;4.10;3.80;;;8.60;62.90;;;;;;4992315;28;20482;-89
2023/03/10 01:48:34;;;;;;;4.30;3.90;;;8.60;62.90;;;;;;4985984;28;20121;-88
2023/03/10 01:51:02;;;;;;;3.90;3.60;;;8.60;63.00;;;;;;4982423;28;20038;-89
2023/03/10 01:53:28;;;;;;;3.85;3.60;;;8.50;62.80;;;;;;4972447;28;20046;-87
2023/03/10 01:55:59;;;;;;;3.80;3.50;;;8.50;62.90;;;;;;4987543;28;20594;-87
2023/03/10 01:58:33;;;;;;;3.90;3.60;;;8.50;62.90;;;;;;4971386;28;20482;-87
2023/03/10 02:00:59;;;;;;;3.33;3.13;;;8.50;62.90;;;;;;4996507;28;20065;-86
2023/03/10 02:03:36;;;;;;;3.60;3.30;;;8.50;62.90;;;;;;4987195;28;20054;-87
2023/03/10 02:06:06;;;;;;;3.70;3.40;;;8.50;62.90;;;;;;4992940;28;20038;-87
2023/03/10 02:08:43;;;;;;;3.90;3.60;;;8.40;62.70;;;;;;4986256;28;20035;-86
2023/03/10 02:11:13;;;;;;;3.75;3.53;;;8.40;62.70;;;;;;4992081;28;20498;-87
2023/03/10 02:13:41;;;;;;;3.78;3.47;;;8.40;62.70;;;;;;4988888;28;20042;-90
2023/03/10 02:16:08;;;;;;;3.90;3.60;;;8.40;62.70;;;;;;4975698;28;20188;-87
2023/03/10 02:18:34;;;;;;;3.70;3.40;;;8.40;62.80;;;;;;4991505;28;20038;-87
2023/03/10 02:21:03;;;;;;;3.85;3.55;;;8.30;62.60;;;;;;4974293;28;20044;-86
2023/03/10 02:23:51;;;;;;;3.65;3.35;;;8.30;62.60;;;;;;4999183;28;20067;-88
2023/03/10 02:26:24;;;;;;;3.90;3.60;;;8.30;62.70;;;;;;4995417;28;20073;-87
2023/03/10 02:28:51;;;;;;;;;;;8.30;62.70;;;;;;4980646;28;20034;-90
2023/03/10 02:31:20;;;;;;;4.03;3.72;;;8.20;62.50;;;;;;4989402;28;19960;-88
2023/03/10 02:33:48;;;;;;;3.80;3.50;;;8.20;62.40;;;;;;4989547;28;20053;-87
2023/03/10 02:36:20;;;;;;;4.00;3.70;;;8.20;62.50;;;;;;4988781;28;20041;-86
2023/03/10 02:38:46;;;;;;;3.90;3.60;;;8.10;62.40;;;;;;4989062;28;20045;-87
2023/03/10 02:41:20;;;;;;;3.45;3.15;;;8.10;62.40;;;;;;4993783;28;20038;-86
2023/03/10 02:43:47;;;;;;;3.50;3.20;;;8.10;62.40;;;;;;4975184;28;20035;-87
2023/03/10 02:46:21;;;;;;;3.60;3.35;;;8.00;62.30;;;;;;4986503;28;20394;-88
2023/03/10 02:48:47;;;;;;;3.50;3.22;;;8.10;62.60;;;;;;4980853;28;20046;-87
2023/03/10 02:51:23;;;;;;;4.28;2.78;;;8.00;62.40;;;;;;4991535;28;20135;-85
2023/03/10 02:53:50;;;;;;;3.28;3.08;;;8.00;62.90;;;;;;5000800;28;20042;-85
2023/03/10 02:56:20;;;;;;;3.33;3.03;;;8.00;62.40;;;;;;4971539;28;20054;-87
2023/03/10 02:58:48;;;;;;;3.10;2.90;;;8.00;62.40;;;;;;4989267;28;20042;-86
2023/03/10 03:01:15;;;;;;;3.00;2.80;;;8.00;62.40;;;;;;4989198;28;20026;-87
2023/03/10 03:03:41;;;;;;;3.85;3.55;;;8.00;62.40;;;;;;4975476;28;20042;-90
2023/03/10 03:06:09;;;;;;;3.13;2.92;;;8.00;62.50;;;;;;4986584;28;20038;-90
2023/03/10 03:08:35;;;;;;;2.92;2.72;;;8.00;62.40;;;;;;4990814;28;20030;-88
2023/03/10 03:11:04;;;;;;;3.13;2.90;;;7.90;62.30;;;;;;4985932;28;20096;-90
2023/03/10 03:13:31;;;;;;;3.00;2.80;;;7.90;62.30;;;;;;4974054;28;20856;-89
2023/03/10 03:15:59;;;;;;;2.88;2.67;;;7.90;62.30;;;;;;4992576;28;20034;-90
2023/03/10 03:18:25;;;;;;;2.95;2.75;;;7.90;62.30;;;;;;4996198;28;20393;-89
2023/03/10 03:20:51;;;;;;;2.83;2.63;;;7.80;62.10;;;;;;4995695;28;20041;-88
2023/03/10 03:23:18;;;;;;;2.88;2.67;;;7.90;62.30;;;;;;4990614;28;20038;-90
2023/03/10 03:25:44;;;;;;;2.83;2.63;;;7.80;62.10;;;;;;4974693;28;20414;-90
2023/03/10 03:28:14;;;;;;;2.72;2.53;;;7.80;62.10;;;;;;4989747;28;20030;-89
2023/03/10 03:30:45;;;;;;;2.05;1.95;;;7.80;62.10;;;;;;4988525;28;20031;-88
2023/03/10 03:33:12;;;;;;;2.70;2.50;;;7.80;62.10;;;;;;4971976;28;20109;-89
2023/03/10 03:35:42;;;;;;;2.90;2.70;;;7.80;62.10;;;;;;4974474;28;20022;-88
2023/03/10 03:38:09;;;;;;;3.08;2.78;;;7.80;62.20;;;;;;4992541;28;20112;-88
2023/03/10 03:40:37;;;;;;;2.30;2.20;;;7.80;62.20;;;;;;4976964;28;20155;-88
2023/03/10 03:43:05;;;;;;;2.40;2.20;;;7.80;62.20;;;;;;4988903;28;20527;-88
2023/03/10 03:45:32;;;;;;;2.35;2.25;;;7.70;62.00;;;;;;5001274;28;20050;-90
2023/03/10 03:47:59;;;;;;;2.70;2.50;;;7.70;62.00;;;;;;4989775;28;20132;-87
2023/03/10 03:50:26;;;;;;;2.38;2.20;;;7.70;62.10;;;;;;4992265;28;20037;-89
2023/03/10 03:52:56;;;;;;;2.05;1.95;;;7.70;62.10;;;;;;4976067;28;20034;-86
2023/03/10 03:55:28;;;;;;;2.00;1.90;;;7.70;62.10;;;;;;4982321;28;20058;-85
2023/03/10 03:57:54;;;;;;;2.08;1.98;;;7.70;62.10;;;;;;4989433;28;20648;-86
2023/03/10 04:00:23;;;;;;;1.90;1.80;;;7.70;62.10;;;;;;4975208;28;20030;-86
2023/03/10 04:02:55;;;;;;;1.70;1.60;;;7.70;62.10;;;;;;4985692;28;20037;-87
2023/03/10 04:05:22;;;;;;;1.63;1.52;;;7.60;61.90;;;;;;4992017;28;20057;-86
2023/03/10 04:07:49;;;;;;;1.65;1.55;;;7.60;61.90;;;;;;4974814;28;20034;-85
2023/03/10 04:10:20;;;;;;;2.58;2.38;;;7.60;61.90;;;;;;4990001;28;20054;-84
2023/03/10 04:12:46;;;;;;;1.77;1.67;;;7.60;61.90;;;;;;4989620;28;20034;-84
2023/03/10 04:15:13;;;;;;;1.88;1.77;;;7.60;61.90;;;;;;4989979;28;20438;-85
2023/03/10 04:17:39;;;;;;;1.58;1.48;;;7.60;61.90;;;;;;4990102;28;20138;-84
2023/03/10 04:20:07;;;;;;;1.80;1.70;;;7.60;61.90;;;;;;4973898;28;20113;-85
2023/03/10 04:22:36;;;;;;;1.70;1.55;;;7.50;61.80;;;;;;4994089;28;20033;-84
2023/03/10 04:25:03;;;;;;;1.17;1.17;;;7.50;61.80;;;;;;4974040;28;20049;-85
2023/03/10 04:27:29;;;;;;;1.70;1.60;;;7.50;61.90;;;;;;4990649;28;20041;-84
2023/03/10 04:29:55;;;;;;;1.77;1.60;;;7.50;61.90;;;;;;4990558;28;20042;-84
2023/03/10 04:32:22;;;;;;;1.67;1.58;;;7.50;61.90;;;;;;4971574;28;20030;-84
2023/03/10 04:34:48;;;;;;;1.60;1.50;;;7.50;61.90;;;;;;5003938;28;20089;-84
2023/03/10 04:37:14;;;;;;;1.65;1.40;;;7.40;61.70;;;;;;4991496;28;20033;-85
2023/03/10 04:39:40;;;;;;;1.50;1.40;;;7.40;61.70;;;;;;4990025;28;20103;-84
2023/03/10 04:42:07;;;;;;;1.40;1.33;;;7.40;61.70;;;;;;4990803;28;20375;-84
2023/03/10 04:44:33;;;;;;;1.40;1.30;;;7.40;62.30;;;;;;4989344;28;20041;-82
2023/03/10 04:47:02;;;;;;;1.40;1.25;;;7.40;61.80;;;;;;4947002;28;1131859;-82
2023/03/10 04:49:29;;;;;;;1.65;1.55;;;7.40;61.80;;;;;;4986912;28;20034;-81
2023/03/10 04:51:56;;;;;;;1.55;1.45;;;7.40;61.80;;;;;;4989919;28;20038;-80
2023/03/10 04:54:22;;;;;;;1.40;1.30;;;7.40;61.80;;;;;;4990808;28;20037;-82
2023/03/10 04:56:48;;;;;;;1.40;1.30;;;7.40;61.80;;;;;;4974385;28;20034;-81
2023/03/10 04:59:14;;;;;;;1.42;1.33;;;7.30;61.60;;;;;;4991011;28;20085;-82
2023/03/10 05:01:41;;;;;;;1.45;1.35;;;7.40;61.80;;;;;;4990978;28;20042;-85
2023/03/10 05:04:07;;;;;;;1.58;1.48;;;7.30;61.60;;;;;;4990076;28;20043;-85
2023/03/10 05:06:34;;;;;;;1.13;1.13;;;7.30;61.60;;;;;;4990954;28;20490;-84
2023/03/10 05:09:28;;;;;;;1.60;1.50;;;7.30;61.70;;;;;;4986274;28;20096;-91
2023/03/10 05:11:55;;;;;;;1.10;1.10;;;7.30;61.60;;;;;;4989250;28;20067;-86
2023/03/10 05:14:21;;;;;;;1.27;1.17;;;7.30;61.60;;;;;;4990277;28;20045;-85
2023/03/10 05:16:48;;;;;;;1.35;1.25;;;7.30;61.60;;;;;;4971007;28;20042;-90
2023/03/10 05:19:14;;;;;;;1.40;1.30;;;7.30;61.60;;;;;;4984431;28;20393;-88
2023/03/10 05:21:40;;;;;;;1.27;1.25;;;7.20;61.50;;;;;;4998172;28;20034;-90
2023/03/10 05:24:06;;;;;;;1.33;1.00;;;7.20;61.50;;;;;;4995609;28;20497;-91
2023/03/10 05:26:32;;;;;;;1.25;1.15;;;7.20;61.50;;;;;;4991126;28;20061;-90
2023/03/10 05:28:58;;;;;;;1.02;0.88;;;7.20;61.50;;;;;;4990190;28;20347;-87
2023/03/10 05:31:47;;;;;;;0.80;0.80;;;7.20;61.60;;;;;;4992532;28;20045;-87
2023/03/10 05:34:22;;;;;;;0.85;0.85;;;7.20;61.60;;;;;;4989726;28;20019;-90
2023/03/10 05:36:49;;;;;;;0.75;0.75;;;7.10;61.40;;;;;;4989949;28;20414;-88
2023/03/10 05:39:16;;;;;;;1.08;0.98;;;7.10;61.40;;;;;;4974626;28;20046;-90
2023/03/10 05:41:45;;;;;;;0.88;0.88;;;7.10;61.40;;;;;;4990574;28;20081;-88
2023/03/10 05:44:11;;;;;;;0.88;0.88;;;7.10;61.50;;;;;;4991348;28;20105;-87
2023/03/10 05:46:38;;;;;;;0.82;0.82;;;7.10;61.50;;;;;;4974647;28;20038;-88
2023/03/10 05:49:05;;;;;;;0.70;0.70;;;7.10;61.50;;;;;;4997008;28;20532;-87
2023/03/10 05:51:32;;;;;;;0.90;0.90;;;7.10;61.50;;;;;;4991964;28;20030;-88
2023/03/10 05:54:00;;;;;;;0.80;0.80;;;7.10;61.50;;;;;;4982452;28;20520;-88
2023/03/10 05:56:30;;;;;;;0.70;0.65;;;7.10;61.50;;;;;;4992130;28;20061;-87
2023/03/10 05:58:59;;;;;;;0.90;0.70;;;7.10;61.50;;;;;;4992866;28;20046;-87
2023/03/10 06:01:30;;;;;;;0.70;0.70;;;7.00;61.30;;;;;;4991517;28;20158;-88
2023/03/10 06:03:56;;;;;;;0.60;0.60;;;7.10;61.50;;;;;;5001849;28;20589;-89
2023/03/10 06:06:22;;;;;;;0.50;0.50;;;7.00;61.30;;;;;;4997294;28;20389;-89
2023/03/10 06:08:49;;;;;;;0.60;0.60;;;7.00;61.30;;;;;;4999460;28;21208;-91
2023/03/10 06:11:14;;;;;;;0.60;0.60;;;7.00;61.30;;;;;;4976158;28;20019;-90
2023/03/10 06:13:40;;;;;;;0.63;0.50;;;7.00;61.30;;;;;;4999103;28;20030;-90
2023/03/10 06:16:06;;;;;;;0.55;0.55;;;7.00;61.30;;;;;;4997868;28;20092;-91
2023/03/10 06:18:34;;;;;;;0.73;0.73;;;7.00;61.30;;;;;;4974257;28;20046;-89
2023/03/10 06:21:04;;;;;;;0.32;0.32;;;6.90;61.20;;;;;;4987414;28;20394;-87
2023/03/10 06:23:30;;;;;;;0.50;0.50;;;6.90;61.20;;;;;;4992294;28;20034;-90
2023/03/10 06:26:05;;;;;;;0.60;0.60;;;6.90;61.20;;;;;;4990670;28;20026;-89
2023/03/10 06:28:34;;;;;;;0.68;0.60;;;6.90;61.20;;;;;;4990601;28;20043;-89
2023/03/10 06:31:05;;;;;;;0.32;0.30;;;6.90;61.20;;;;;;4991752;28;20117;-96
2023/03/10 06:33:31;;;;;;;0.40;0.40;;;6.90;61.20;;;;;;4997617;28;20503;-90
2023/03/10 06:35:58;;;;;;;0.52;0.50;;;6.90;61.20;;;;;;4998840;28;20048;-90
2023/03/10 06:38:24;;;;;;;0.52;0.43;;;6.90;61.20;;;;;;4984109;28;20043;-84
2023/03/10 06:40:51;;;;;;;0.30;0.30;;;6.90;61.20;;;;;;4999372;28;20086;-89
2023/03/10 06:43:17;;;;;;;0.30;0.30;;;6.90;61.20;;;;;;4991973;28;20546;-86
2023/03/10 06:45:45;;;;;;;0.40;0.40;;;6.90;61.70;;;;;;4988956;28;20571;-82
2023/03/10 06:48:12;;;;;;;0.30;0.30;;;6.90;61.20;;;;;;4994693;28;20046;-80
2023/03/10 06:50:44;;;;;;;0.60;0.60;;;6.90;61.20;;;;;;4992384;28;20034;-81
2023/03/10 06:53:12;;;;;;;0.40;0.40;;;6.80;61.00;;;;;;4994547;28;20120;-81
2023/03/10 06:55:38;;;;;;;1.73;1.08;;;6.90;61.20;;;;;;4987076;28;20030;-79
2023/03/10 06:58:04;;;;;;;5.50;0.47;;;6.90;61.10;;;;;;4985014;28;20096;-81
2023/03/10 07:00:31;;;;;;;1.45;0.40;;;6.80;60.80;;;;;;4997207;28;20054;-84
2023/03/10 07:02:57;;;;;;;0.40;0.30;;;6.80;60.70;;;;;;4997705;28;20397;-80
2023/03/10 07:05:23;;;;;;;0.47;0.47;;;6.80;60.90;;;;;;4982715;28;20425;-79
2023/03/10 07:07:49;;;;;;;0.47;0.45;;;6.80;60.90;;;;;;4985629;28;20046;-83
2023/03/10 07:10:16;;;;;;;1.42;0.70;;;6.80;60.90;;;;;;4997311;28;20034;-82
2023/03/10 07:12:43;;;;;;;1.80;1.05;;;6.80;60.90;;;;;;4991211;28;20553;-83
2023/03/10 07:15:10;;;;;;;11.60;1.63;;;6.90;61.70;;;;;;4989990;28;20553;-83
2023/03/10 07:17:36;;;;;;;1.77;1.00;;;7.10;62.60;;;;;;4986768;28;20490;-82
2023/03/10 07:20:03;;;;;;;2.25;0.73;;;7.30;62.80;;;;;;4978986;28;20100;-82
2023/03/10 07:22:30;;;;;;;1.35;0.90;;;7.40;62.80;;;;;;4986077;28;20053;-78
2023/03/10 07:24:57;;;;;;;3.05;0.60;;;7.40;62.60;;;;;;4981870;28;20034;-78
2023/03/10 07:27:23;;;;;;;0.50;0.50;;;7.50;62.60;;;;;;4981414;28;20087;-80
2023/03/10 07:29:49;;;;;;;0.73;0.52;;;7.40;62.40;;;;;;4985763;28;20502;-81
2023/03/10 07:32:16;;;;;;;0.60;0.47;;;7.40;62.40;;;;;;4984453;28;20273;-83
2023/03/10 07:34:42;;;;;;;1.48;0.50;;;7.40;62.40;;;;;;4978236;28;20044;-76
2023/03/10 07:37:09;;;;;;;5.28;0.65;;;7.40;62.40;;;;;;4978947;28;20537;-77
2023/03/10 07:39:35;;;;;;;0.95;0.60;;;7.40;62.60;;;;;;4988010;28;20123;-78
2023/03/10 07:42:02;;;;;;;1.60;0.52;;;7.40;62.60;;;;;;4979684;28;20022;-79
2023/03/10 07:44:31;;;;;;;0.90;0.55;;;7.40;62.60;;;;;;4981006;28;20037;-77
2023/03/10 07:46:57;;;;;;;0.40;0.40;;;7.30;62.40;;;;;;4985093;28;20778;-77
2023/03/10 07:49:22;;;;;;;0.47;0.47;;;7.40;62.50;;;;;;4988563;28;20038;-79
2023/03/10 07:51:49;;;;;;;1.05;0.52;;;7.40;62.40;;;;;;4983068;28;20046;-77
2023/03/10 07:54:15;;;;;;;0.90;0.60;;;7.30;62.20;;;;;;4976090;28;20130;-77
2023/03/10 07:56:41;;;;;;;1.08;0.70;;;7.40;62.30;;;;;;4982055;28;20549;-81
2023/03/10 07:59:10;;;;;;;5.07;0.60;;;7.40;62.20;;;;;;4989274;28;20038;-78
2023/03/10 08:01:36;;;;;;;0.55;0.55;;;7.30;62.00;;;;;;4988274;28;20037;-78
2023/03/10 08:04:02;;;;;;;0.55;0.50;;;7.30;61.90;;;;;;4979211;28;20256;-78
2023/03/10 08:06:31;;;;;;;0.45;0.40;;;7.40;62.10;;;;;;4981971;28;20648;-77
2023/03/10 08:08:57;;;;;;;0.80;0.50;;;7.50;62.30;;;;;;4981572;28;20148;-78
2023/03/10 08:11:23;;;;;;;1.20;0.60;;;7.50;62.30;;;;;;4982710;28;20093;-79
2023/03/10 08:13:50;;;;;;;0.73;0.60;;;7.60;62.50;;;;;;4985679;28;20449;-77
2023/03/10 08:16:19;;;;;;;0.80;0.70;;;7.80;62.80;;;;;;4988339;28;20030;-77
2023/03/10 08:18:45;;;;;;;0.90;0.50;;;7.90;62.90;;;;;;4982731;28;20077;-79
2023/03/10 08:21:12;;;;;;;0.40;0.40;;;8.00;63.40;;;;;;4985671;28;20520;-80
2023/03/10 08:23:38;;;;;;;0.85;0.57;;;8.10;63.00;;;;;;4994451;28;20045;-79
2023/03/10 08:26:11;;;;;;;0.63;0.60;;;8.20;63.10;;;;;;4988086;28;20524;-79
2023/03/10 08:28:37;;;;;;;0.60;0.47;;;8.30;63.10;;;;;;4993089;28;20505;-80
2023/03/10 08:31:09;;;;;;;1.73;0.50;;;8.40;63.10;;;;;;4996026;28;20060;-79
2023/03/10 08:33:37;;;;;;;0.70;0.70;;;8.50;63.10;;;;;;4991312;28;20281;-78
2023/03/10 08:36:14;;;;;;;0.60;0.60;;;8.60;63.10;;;;;;4987142;28;20437;-80
2023/03/10 08:38:40;;;;;;;1.48;0.70;;;8.80;63.20;;;;;;4987337;28;20050;-81
2023/03/10 08:41:12;;;;;;;2.00;0.68;;;8.90;63.00;;;;;;4985885;28;20508;-79
2023/03/10 08:43:39;;;;;;;0.50;0.50;;;9.00;62.90;;;;;;4965677;28;20051;-80
2023/03/10 08:46:06;;;;;;;0.50;0.50;;;9.10;62.90;;;;;;4986188;28;20061;-79
2023/03/10 08:48:32;;;;;;;1.08;0.50;;;9.20;62.80;;;;;;4992060;28;20073;-78
2023/03/10 08:51:03;;;;;;;1.48;0.57;;;9.30;62.70;;;;;;4984902;28;20505;-80
2023/03/10 08:53:33;;;;;;;0.60;0.50;;;9.40;62.70;;;;;;4986244;28;20034;-79
2023/03/10 08:55:59;;;;;;;1.25;0.63;;;9.50;62.60;;;;;;4988055;28;20033;-77
2023/03/10 08:58:25;;;;;;;1.55;0.50;;;9.50;62.40;;;;;;4986207;28;20100;-81
2023/03/10 09:00:51;;;;;;;3.97;0.73;;;9.60;62.50;;;;;;4987125;28;20038;-80
2023/03/10 09:03:18;;;;;;;1.20;0.63;;;9.70;62.50;;;;;;4985884;28;20723;-78
2023/03/10 09:05:46;;;;;;;1.02;0.60;;;9.80;62.60;;;;;;4986425;28;20029;-81
2023/03/10 09:08:12;;;;;;;1.48;0.70;;;9.90;62.60;;;;;;4989426;28;20041;-80
2023/03/10 09:10:40;;;;;;;2.28;0.60;;;10.00;62.60;;;;;;4990125;28;20493;-79
2023/03/10 09:13:07;;;;;;;1.00;0.60;;;10.10;62.50;;;;;;4977158;28;20452;-78
2023/03/10 09:15:33;;;;;;;1.08;0.70;;;10.10;62.30;;;;;;4984032;28;20102;-78
2023/03/10 09:18:00;;;;;;;0.65;0.50;;;10.20;62.30;;;;;;4996501;28;20038;-80
2023/03/10 09:20:27;;;;;;;0.65;0.50;;;10.30;62.40;;;;;;4984988;28;20105;-80
2023/03/10 09:22:54;;;;;;;0.57;0.57;;;10.40;62.40;;;;;;4985049;28;20140;-80
2023/03/10 09:25:21;;;;;;;1.50;0.50;;;10.50;62.40;;;;;;5007204;28;20066;-81
2023/03/10 09:27:47;;;;;;;0.55;0.50;;;10.50;62.20;;;;;;5007229;28;20046;-81
2023/03/10 09:30:14;;;;;;;0.98;0.60;;;10.60;62.20;;;;;;5009014;28;20057;-81
2023/03/10 09:32:40;;;;;;;1.83;0.68;;;10.60;62.10;;;;;;5002444;28;20098;-84
2023/03/10 09:35:07;;;;;;;0.77;0.70;;;10.60;61.90;;;;;;4997329;28;20309;-79
2023/03/10 09:37:33;;;;;;;2.15;0.60;;;10.80;62.20;;;;;;5006857;28;20084;-78
2023/03/10 09:39:59;;;;;;;0.85;0.52;;;10.80;62.10;;;;;;5006593;28;20414;-80
2023/03/10 09:42:38;;;;;;;0.93;0.57;;;10.80;61.90;;;;;;5007811;28;20045;-82
2023/03/10 09:46:06;;;;;;;1.58;0.65;;;10.90;61.90;;;;;;5007564;28;20166;-83
2023/03/10 09:48:49;;;;;;;1.70;0.60;;;11.00;61.80;;;;;;4925964;28;20732;-81
2023/03/10 09:51:26;;;;;;;;;;;11.00;61.60;;;;;;4970378;28;20073;-81
2023/03/10 09:54:13;;;;;;;1.02;0.50;;;11.10;61.60;;;;;;4990576;28;19917;-81
2023/03/10 09:56:39;;;;;;;1.33;0.60;;;11.10;61.50;;;;;;4985812;28;20196;-83
2023/03/10 09:59:37;;;;;;;0.60;0.50;;;11.10;62.00;;;;;;4991189;28;20371;-82
2023/03/10 10:02:25;;;;;;;1.33;0.40;;;11.10;61.40;;;;;;4976349;28;20501;-83
2023/03/10 10:05:01;;;;;;;0.50;0.50;;;11.10;61.30;;;;;;4978680;28;20489;-82
2023/03/10 10:07:41;;;;;;;1.00;0.45;;;11.10;61.20;;;;;;4989456;28;20077;-80
2023/03/10 10:10:23;;;;;;;0.50;0.50;;;11.10;61.10;;;;;;4983242;28;20030;-81
2023/03/10 10:12:51;;;;;;;1.73;0.60;;;11.20;61.00;;;;;;4976173;28;20176;-82
2023/03/10 10:15:21;;;;;;;0.52;0.50;;;11.30;61.10;;;;;;4987348;28;20628;-82
2023/03/10 10:18:13;;;;;;;1.08;0.60;;;11.30;60.90;;;;;;4995205;28;20027;-84
2023/03/10 10:20:50;;;;;;;0.30;0.30;;;11.40;60.70;;;;;;4985668;28;20035;-82
2023/03/10 10:23:24;;;;;;;0.40;0.30;;;11.50;60.60;;;;;;4986184;28;20045;-80
2023/03/10 10:25:50;;;;;;;0.40;0.40;;;11.60;60.50;;;;;;4987020;28;20109;-81
2023/03/10 10:28:25;;;;;;;0.35;0.35;;;11.70;60.30;;;;;;4986673;28;20073;-80
2023/03/10 10:31:07;;;;;;;0.30;0.30;;;11.80;60.20;;;;;;4987120;28;20569;-81
2023/03/10 10:33:59;;;;;;;0.20;0.20;;;11.80;59.90;;;;;;4984281;28;20034;-80
2023/03/10 10:36:32;;;;;;;0.40;0.35;;;11.90;59.90;;;;;;4988254;28;20042;-81
2023/03/10 10:38:59;;;;;;;0.55;0.40;;;12.00;59.90;;;;;;4995893;28;20080;-81
2023/03/10 10:41:28;;;;;;;0.40;0.40;;;12.00;59.60;;;;;;4991204;28;20038;-80
2023/03/10 10:44:05;;;;;;;1.42;0.30;;;12.10;59.50;;;;;;4978837;28;20042;-81
2023/03/10 10:46:31;;;;;;;0.90;0.47;;;12.20;59.40;;;;;;4981718;28;20137;-79
2023/03/10 10:49:03;;;;;;;2.70;0.40;;;12.20;59.20;;;;;;4976119;28;20128;-76
2023/03/10 10:51:34;;;;;;;0.47;0.40;;;12.30;59.10;;;;;;4980086;28;20214;-78
2023/03/10 10:54:37;;;;;;;0.82;0.50;;;12.50;59.20;;;;;;4983442;28;20175;-76
2023/03/10 10:57:19;;;;;;;0.65;0.50;;;12.70;58.80;;;;;;4940245;28;20035;-78
2023/03/10 10:59:46;;;;;;;1.40;0.52;;;12.80;58.60;;;;;;4986708;28;20509;-78
2023/03/10 11:02:38;;;;;;;1.00;0.60;;;13.00;58.60;;;;;;4966815;28;20200;-78
2023/03/10 11:05:22;;;;;;;1.70;0.70;;;13.20;58.20;;;;;;4971684;28;20387;-78
2023/03/10 11:07:49;;;;;;;1.33;0.50;;;13.30;58.20;;;;;;4983094;28;20041;-79
2023/03/10 11:10:18;;;;;;;1.02;0.90;;;13.40;58.10;;;;;;4988359;28;20477;-79
2023/03/10 11:12:59;;;;;;;1.00;0.50;;;13.50;57.90;;;;;;4981590;28;20382;-78
2023/03/10 11:15:59;;;;;;;1.45;0.50;;;13.60;57.80;;;;;;4978565;28;20034;-78
2023/03/10 11:18:57;;;;;;;0.65;0.40;;;13.80;57.40;;;;;;4977227;28;20077;-79
2023/03/10 11:21:30;;;;;;;0.50;0.50;;;14.00;57.30;;;;;;4972980;28;20498;-85
2023/03/10 11:24:14;;;;;;;0.77;0.30;;;14.10;57.40;;;;;;4984693;28;20573;-86
2023/03/10 11:27:07;;;;;;;2.90;0.40;;;14.30;57.40;;;;;;4980207;28;20037;-83
2023/03/10 11:30:05;;;;;;;0.82;0.40;;;14.60;57.50;;;;;;4984863;28;20415;-88
2023/03/10 11:32:50;;;;;;;3.60;0.40;;;14.80;57.30;;;;;;4972112;28;20040;-79
2023/03/10 11:35:26;;;;;;;1.75;0.40;;;15.00;57.50;;;;;;4983631;28;20110;-77
2023/03/10 11:38:03;;;;;;;1.48;0.50;;;15.20;57.60;;;;;;4983529;28;20395;-81
2023/03/10 11:40:36;;;;;;;1.40;0.40;;;15.30;57.90;;;;;;4978661;28;20031;-82
2023/03/10 11:43:18;;;;;;;0.82;0.75;;;15.50;57.40;;;;;;4982313;28;20034;-79
2023/03/10 11:45:51;;;;;;;1.10;0.50;;;15.60;57.10;;;;;;4988640;28;20037;-85
2023/03/10 11:48:23;;;;;;;0.43;0.43;;;15.70;57.10;;;;;;4987191;28;20123;-82
2023/03/10 11:50:58;;;;;;;2.60;0.60;;;15.90;57.10;;;;;;4988180;28;20077;-80
2023/03/10 11:53:27;;;;;;;0.73;0.40;;;15.90;57.10;;;;;;4985484;28;20037;-81
2023/03/10 11:55:55;;;;;;;1.10;0.65;;;15.90;56.20;;;;;;4982821;28;20027;-78
2023/03/10 11:58:27;;;;;;;2.47;0.57;;;15.80;55.70;;;;;;4983726;28;20034;-78
2023/03/10 12:00:54;;;;;;;1.33;0.63;;;15.70;55.40;;;;;;4985291;28;20054;-80
2023/03/10 12:03:56;;;;;;;1.27;0.50;;;15.60;55.10;;;;;;4965752;28;20449;-81
2023/03/10 12:06:46;;;;;;;0.52;0.50;;;15.60;55.30;;;;;;4969718;28;20037;-80
2023/03/10 12:09:45;;;;;;;1.88;0.50;;;15.70;55.70;;;;;;5006218;28;20048;-81
2023/03/10 12:12:15;;;;;;;2.25;1.13;;;15.80;55.70;;;;;;4981758;28;20088;-81
2023/03/10 12:14:43;;;;;;;1.10;0.52;;;16.00;56.00;;;;;;4987514;28;20165;-81
2023/03/10 12:17:14;;;;;;;0.55;0.32;;;16.10;56.00;;;;;;4971881;28;20042;-78
2023/03/10 12:20:12;;;;;;;2.95;0.70;;;16.30;56.00;;;;;;4982940;28;20031;-80
2023/03/10 12:22:50;;;;;;;1.35;0.40;;;16.40;55.70;;;;;;4985101;28;20149;-80
2023/03/10 12:25:34;;;;;;;0.70;0.60;;;16.40;55.60;;;;;;4978910;28;20322;-80
2023/03/10 12:28:15;;;;;;;0.57;0.50;;;16.30;55.40;;;;;;4975815;28;20045;-78
2023/03/10 12:30:52;;;;;;;0.88;0.55;;;16.30;55.10;;;;;;4982164;28;20133;-78
2023/03/10 12:33:38;;;;;;;1.20;0.80;;;16.30;54.90;;;;;;4982865;28;20034;-79
2023/03/10 12:36:14;;;;;;;1.08;0.70;;;16.30;54.50;;;;;;4978569;28;20038;-79
2023/03/10 12:38:45;;;;;;;1.65;1.10;;;16.30;54.40;;;;;;4984004;28;20041;-79
2023/03/10 12:41:15;;;;;;;1.58;1.02;;;16.30;54.10;;;;;;4981069;28;20374;-79
2023/03/10 12:44:26;;;;;;;0.70;0.70;;;16.30;53.90;;;;;;4983275;28;20128;-81
2023/03/10 12:47:00;;;;;;;3.35;1.13;;;16.30;53.10;;;;;;4983517;28;20050;-78
2023/03/10 12:49:35;;;;;;;0.82;0.70;;;16.30;53.10;;;;;;4976230;28;20568;-79
2023/03/10 12:52:34;;;;;;;1.60;0.80;;;16.20;53.00;;;;;;4984927;28;20034;-77
2023/03/10 12:55:13;;;;;;;2.22;0.82;;;16.10;52.30;;;;;;4977915;28;20031;-79
2023/03/10 12:57:51;;;;;;;0.98;0.90;;;16.00;52.40;;;;;;4979794;28;20328;-79
2023/03/10 13:00:26;;;;;;;0.68;0.68;;;16.00;52.40;;;;;;4986906;28;20107;-77
2023/03/10 13:03:34;;;;;;;0.88;0.80;;;15.90;51.90;;;;;;4984350;28;20049;-80
2023/03/10 13:06:20;;;;;;;2.30;0.80;;;15.90;51.50;;;;;;4981119;28;20498;-78
2023/03/10 13:08:57;;;;;;;0.52;0.52;;;15.80;51.60;;;;;;4980558;28;20373;-79
2023/03/10 13:11:35;;;;;;;1.33;0.75;;;15.70;51.30;;;;;;4985712;28;20197;-78
2023/03/10 13:14:03;;;;;;;0.77;0.73;;;15.60;51.10;;;;;;4985723;28;20418;-79
2023/03/10 13:16:30;;;;;;;0.80;0.80;;;15.60;51.40;;;;;;4990682;28;20122;-79